Terminal Aerodrome Forecast
Issued by NWS

Home | Current Version | Previous Version | Text Only | Print | Product List | Glossary Off
Versions: 1 2 3 4 5 6 7 8 9 10 11 12 13 14 15 16 17 18 19 20 21 22 23 24 25 26 27 28

041
FTUS43 KLOT 041151
TAFMDW
TAF
KMDW 041151Z 0412/0512 14004KT P6SM OVC080
     FM041400 14005KT 6SM -SN OVC060
     FM041500 14006KT 3SM -SN BKN025 OVC050
     FM041600 14007KT 1 1/2SM -SN SCT007 OVC015
     FM041800 16008KT 3/4SM -SN BR OVC004
     FM042200 18006KT 1 1/2SM -SN BR OVC005
     FM050000 21007KT 5SM -SN BR OVC008
     FM050300 24008KT P6SM BKN015=

USA.gov is the U.S. government's official web portal to all federal, state and local government web resources and services.